createdAt,value
2023-05-18T00:00:41.986Z,5.85
2023-05-18T00:03:35.063Z,6.20
2023-05-18T00:06:09.534Z,5.13
2023-05-18T00:08:42.500Z,6.65
2023-05-18T00:11:35.886Z,6.50
2023-05-18T00:14:07.058Z,6.40
2023-05-18T00:16:42.854Z,5.55
2023-05-18T00:19:16.237Z,6.40
2023-05-18T00:22:10.445Z,7.20
2023-05-18T00:24:47.589Z,6.20
2023-05-18T00:27:39.821Z,5.32
2023-05-18T00:30:31.253Z,5.90
2023-05-18T00:33:03.187Z,5.47
2023-05-18T00:35:35.718Z,6.20
2023-05-18T00:38:07.264Z,6.07
2023-05-18T00:40:40.892Z,5.40
2023-05-18T00:45:42.975Z,5.47
2023-05-18T00:48:15.303Z,5.70
2023-05-18T00:50:49.199Z,5.97
2023-05-18T00:53:21.099Z,5.78
2023-05-18T00:55:52.705Z,5.55
2023-05-18T00:58:26.501Z,6.97
2023-05-18T01:01:01.075Z,5.60
2023-05-18T01:03:36.208Z,5.45
2023-05-18T01:06:09.180Z,5.28
2023-05-18T01:08:40.472Z,5.30
2023-05-18T01:11:42.948Z,5.15
2023-05-18T01:14:24.256Z,5.78
2023-05-18T01:17:08.554Z,6.20
2023-05-18T01:19:54.508Z,6.20
2023-05-18T01:23:11.384Z,6.00
2023-05-18T01:25:50.780Z,5.30
2023-05-18T01:28:30.134Z,5.75
2023-05-18T01:31:01.638Z,6.00
2023-05-18T01:33:31.876Z,5.30
2023-05-18T01:36:02.437Z,5.30
2023-05-18T01:38:33.082Z,5.63
2023-05-18T01:41:25.771Z,5.45
2023-05-18T01:44:37.802Z,5.70
2023-05-18T01:47:15.738Z,6.15
2023-05-18T01:49:45.819Z,6.50
2023-05-18T01:52:22.787Z,6.18
2023-05-18T01:54:56.482Z,5.90
2023-05-18T01:57:32.936Z,5.05
2023-05-18T02:00:05.449Z,5.80
2023-05-18T02:02:46.361Z,5.43
2023-05-18T02:05:19.039Z,5.90
2023-05-18T02:07:50.703Z,6.25
2023-05-18T02:10:20.993Z,6.07
2023-05-18T02:12:54.002Z,6.25
2023-05-18T02:15:24.197Z,5.50
2023-05-18T02:18:00.226Z,5.78
2023-05-18T02:20:33.903Z,5.53
2023-05-18T02:23:04.205Z,5.78
2023-05-18T02:25:34.389Z,5.38
2023-05-18T02:28:04.783Z,5.80
2023-05-18T02:30:35.681Z,5.57
2023-05-18T02:33:10.304Z,6.32
2023-05-18T02:35:42.175Z,6.30
2023-05-18T02:38:13.063Z,5.47
2023-05-18T02:40:43.430Z,5.45
2023-05-18T02:43:13.833Z,5.63
2023-05-18T02:45:43.989Z,5.57
2023-05-18T02:48:14.153Z,5.47
2023-05-18T02:50:45.289Z,5.57
2023-05-18T02:53:15.844Z,5.53
2023-05-18T02:55:47.846Z,5.40
2023-05-18T02:58:26.647Z,5.72
2023-05-18T03:01:16.216Z,5.50
2023-05-18T03:03:52.629Z,5.40
2023-05-18T03:06:24.803Z,5.72
2023-05-18T03:08:58.007Z,5.13
2023-05-18T03:11:35.885Z,4.90
2023-05-18T03:14:06.138Z,5.40
2023-05-18T03:16:39.831Z,5.97
2023-05-18T03:19:17.207Z,5.40
2023-05-18T03:21:51.158Z,5.20
2023-05-18T03:24:21.634Z,4.85
2023-05-18T03:26:55.367Z,4.72
2023-05-18T03:29:25.760Z,4.82
2023-05-18T03:31:56.547Z,4.57
2023-05-18T03:34:27.149Z,5.05
2023-05-18T03:36:59.311Z,4.65
2023-05-18T03:39:29.573Z,4.65
2023-05-18T03:41:59.859Z,4.57
2023-05-18T03:44:30.018Z,5.25
2023-05-18T03:47:00.167Z,4.78
2023-05-18T03:49:32.967Z,4.38
2023-05-18T03:52:04.968Z,5.05
2023-05-18T03:54:35.393Z,4.68
2023-05-18T03:57:05.579Z,5.03
2023-05-18T03:59:36.663Z,4.32
2023-05-18T04:02:07.599Z,4.20
2023-05-18T04:04:37.826Z,4.50
2023-05-18T04:07:12.655Z,4.63
2023-05-18T04:09:45.383Z,4.50
2023-05-18T04:12:15.591Z,3.92
2023-05-18T04:14:50.493Z,3.72
2023-05-18T04:17:25.785Z,4.00
2023-05-18T04:19:55.945Z,4.22
2023-05-18T04:22:26.843Z,4.07
2023-05-18T04:24:58.556Z,3.95
2023-05-18T04:27:30.706Z,5.10
2023-05-18T04:30:01.746Z,4.40
2023-05-18T04:32:37.682Z,4.68
2023-05-18T04:35:09.242Z,4.18
2023-05-18T04:37:42.592Z,3.95
2023-05-18T04:40:18.158Z,4.50
2023-05-18T04:42:50.680Z,3.67
2023-05-18T04:45:27.284Z,3.78
2023-05-18T04:47:59.734Z,4.30
2023-05-18T04:50:30.087Z,3.75
2023-05-18T04:53:03.496Z,3.97
2023-05-18T04:55:34.643Z,3.80
2023-05-18T04:58:12.427Z,3.60
2023-05-18T05:00:43.522Z,4.10
2023-05-18T05:03:13.898Z,3.70
2023-05-18T05:05:44.017Z,4.20
2023-05-18T05:08:14.275Z,4.03
2023-05-18T05:10:44.357Z,3.95
2023-05-18T05:13:14.403Z,3.70
2023-05-18T05:15:44.752Z,3.55
2023-05-18T05:18:14.914Z,4.28
2023-05-18T05:20:45.161Z,3.42
2023-05-18T05:23:15.453Z,4.00
2023-05-18T05:25:47.556Z,3.80
2023-05-18T05:28:17.797Z,3.50
2023-05-18T05:30:48.174Z,3.05
2023-05-18T05:33:19.196Z,3.90
2023-05-18T05:35:49.298Z,3.28
2023-05-18T05:38:19.522Z,3.67
2023-05-18T05:40:49.812Z,3.90
2023-05-18T05:43:20.203Z,4.00
2023-05-18T05:45:51.038Z,3.58
2023-05-18T05:48:21.762Z,3.92
2023-05-18T05:50:52.236Z,3.45
2023-05-18T05:53:24.606Z,3.63
2023-05-18T05:55:55.682Z,3.92
2023-05-18T05:58:25.916Z,3.53
2023-05-18T06:01:01.408Z,3.30
2023-05-18T06:03:35.144Z,3.20
2023-05-18T06:06:08.671Z,3.28
2023-05-18T06:08:38.952Z,3.15
2023-05-18T06:11:11.402Z,2.90
2023-05-18T06:13:42.812Z,3.40
2023-05-18T06:16:13.006Z,2.90
2023-05-18T06:18:44.440Z,3.65
2023-05-18T06:21:15.702Z,3.13
2023-05-18T06:23:46.705Z,3.13
2023-05-18T06:26:34.852Z,3.00
2023-05-18T06:29:10.950Z,3.03
2023-05-18T06:32:16.264Z,3.10
2023-05-18T06:34:55.011Z,3.08
2023-05-18T06:37:25.256Z,3.03
2023-05-18T06:39:55.500Z,2.97
2023-05-18T06:42:25.727Z,2.90
2023-05-18T06:45:05.776Z,3.10
2023-05-18T06:48:02.381Z,3.05
2023-05-18T06:50:34.146Z,3.22
2023-05-18T06:53:05.760Z,3.53
2023-05-18T06:55:36.080Z,3.03
2023-05-18T06:58:07.012Z,2.90
2023-05-18T07:00:37.337Z,3.10
2023-05-18T07:03:12.121Z,3.65
2023-05-18T07:05:42.281Z,3.40
2023-05-18T07:08:12.610Z,2.83
2023-05-18T07:10:42.807Z,3.05
2023-05-18T07:13:13.569Z,3.25
2023-05-18T07:15:44.858Z,3.10
2023-05-18T07:18:15.032Z,3.50
2023-05-18T07:20:45.311Z,3.00
2023-05-18T07:23:15.883Z,3.22
2023-05-18T07:25:46.025Z,3.00
2023-05-18T07:28:17.715Z,2.85
2023-05-18T07:30:47.806Z,2.80
2023-05-18T07:33:18.156Z,3.17
2023-05-18T07:35:48.245Z,2.70
2023-05-18T07:38:18.213Z,2.97
2023-05-18T07:40:49.049Z,3.22
2023-05-18T07:43:19.148Z,3.05
2023-05-18T07:45:49.215Z,3.90
2023-05-18T07:48:19.230Z,2.90
2023-05-18T07:50:49.166Z,2.90
2023-05-18T07:53:19.220Z,3.17
2023-05-18T07:55:49.181Z,3.05
2023-05-18T07:58:19.112Z,2.88
2023-05-18T08:00:49.087Z,3.67
2023-05-18T08:03:20.316Z,3.63
2023-05-18T08:05:51.434Z,2.95
2023-05-18T08:08:21.953Z,3.70
2023-05-18T08:10:55.108Z,3.53
2023-05-18T08:13:25.388Z,3.00
2023-05-18T08:16:07.246Z,2.53
2023-05-18T08:18:41.647Z,3.15
2023-05-18T08:21:12.876Z,2.58
2023-05-18T08:23:43.215Z,3.17
2023-05-18T08:26:14.351Z,2.75
2023-05-18T08:28:46.397Z,2.67
2023-05-18T08:31:17.812Z,3.15
2023-05-18T08:33:50.013Z,3.42
2023-05-18T08:36:20.111Z,2.70
2023-05-18T08:38:50.346Z,3.03
2023-05-18T08:41:31.308Z,2.92
2023-05-18T08:44:41.801Z,2.97
2023-05-18T08:47:12.594Z,3.35
2023-05-18T08:49:44.303Z,2.90
2023-05-18T08:52:19.445Z,3.05
2023-05-18T08:54:52.489Z,3.67
2023-05-18T08:57:26.048Z,2.75
2023-05-18T08:59:58.041Z,2.60
2023-05-18T09:02:28.698Z,3.10
2023-05-18T09:05:00.744Z,3.15
2023-05-18T09:07:32.303Z,3.13
2023-05-18T09:10:04.705Z,2.78
2023-05-18T09:12:36.533Z,2.90
2023-05-18T09:15:07.335Z,2.80
2023-05-18T09:17:38.694Z,3.47
2023-05-18T09:20:09.660Z,2.95
2023-05-18T09:22:42.583Z,3.42
2023-05-18T09:25:13.487Z,2.97
2023-05-18T09:27:44.333Z,2.70
2023-05-18T09:30:14.991Z,2.72
2023-05-18T09:32:49.192Z,3.67
2023-05-18T09:35:19.642Z,4.40
2023-05-18T09:37:49.798Z,3.60
2023-05-18T09:40:21.806Z,2.92
2023-05-18T09:42:52.543Z,3.50
2023-05-18T09:45:27.185Z,2.70
2023-05-18T09:47:58.273Z,3.10
2023-05-18T09:50:28.637Z,3.47
2023-05-18T09:52:58.917Z,4.35
2023-05-18T09:55:29.451Z,4.25
2023-05-18T09:57:59.952Z,4.25
2023-05-18T10:00:30.493Z,3.88
2023-05-18T10:03:02.263Z,3.67
2023-05-18T10:05:36.051Z,3.75
2023-05-18T10:08:07.647Z,4.00
2023-05-18T10:10:42.085Z,3.45
2023-05-18T10:13:16.202Z,4.07
2023-05-18T10:15:52.200Z,3.53
2023-05-18T10:18:30.126Z,3.85
2023-05-18T10:21:02.440Z,4.10
2023-05-18T10:23:37.475Z,3.75
2023-05-18T10:26:10.953Z,4.00
2023-05-18T10:28:45.645Z,4.15
2023-05-18T10:31:18.047Z,4.25
2023-05-18T10:33:48.587Z,4.45
2023-05-18T10:36:20.080Z,4.05
2023-05-18T10:38:50.955Z,4.82
2023-05-18T10:41:24.188Z,6.35
2023-05-18T10:43:56.457Z,4.22
2023-05-18T10:46:28.932Z,4.63
2023-05-18T10:49:02.117Z,4.80
2023-05-18T10:51:34.033Z,5.40
2023-05-18T10:54:14.413Z,5.13
2023-05-18T10:56:51.528Z,4.85
2023-05-18T10:59:24.507Z,5.15
2023-05-18T11:01:56.103Z,5.90
2023-05-18T11:04:30.879Z,5.97
2023-05-18T11:07:03.625Z,6.97
2023-05-18T11:09:33.789Z,6.63
2023-05-18T11:12:04.368Z,7.25
2023-05-18T11:14:34.871Z,6.43
2023-05-18T11:17:25.121Z,5.72
2023-05-18T11:20:07.262Z,6.32
2023-05-18T11:22:54.754Z,5.95
2023-05-18T11:25:30.772Z,6.05
2023-05-18T11:28:06.911Z,5.50
2023-05-18T11:30:41.711Z,5.90
2023-05-18T11:33:14.402Z,5.85
2023-05-18T11:35:57.000Z,5.25
2023-05-18T11:38:54.596Z,6.82
2023-05-18T11:41:32.470Z,6.30
2023-05-18T11:44:23.196Z,6.18
2023-05-18T11:47:07.534Z,5.43
2023-05-18T11:49:48.463Z,5.60
2023-05-18T11:52:21.162Z,5.65
2023-05-18T11:54:55.176Z,5.85
2023-05-18T11:57:49.013Z,5.38
2023-05-18T12:00:21.270Z,6.00
2023-05-18T12:02:54.623Z,5.40
2023-05-18T12:05:26.267Z,5.25
2023-05-18T12:07:58.073Z,5.82
2023-05-18T12:10:28.261Z,5.53
2023-05-18T12:12:59.408Z,5.88
2023-05-18T12:15:32.073Z,5.75
2023-05-18T12:18:05.419Z,5.22
2023-05-18T12:20:36.778Z,5.43
2023-05-18T12:23:07.093Z,4.78
2023-05-18T12:25:38.028Z,4.88
2023-05-18T12:28:09.750Z,5.30
2023-05-18T12:30:40.771Z,5.15
2023-05-18T12:33:15.473Z,5.32
2023-05-18T12:35:45.640Z,5.38
2023-05-18T12:38:20.470Z,5.95
2023-05-18T12:40:51.628Z,5.40
2023-05-18T12:43:23.659Z,6.60
2023-05-18T12:45:54.115Z,7.72
2023-05-18T12:48:27.702Z,28.92
2023-05-18T12:50:57.888Z,17.98
2023-05-18T12:53:28.344Z,7.35
2023-05-18T12:56:00.779Z,9.55
2023-05-18T12:58:32.064Z,9.50
2023-05-18T13:01:12.755Z,13.32
2023-05-18T13:03:43.503Z,10.00
2023-05-18T13:06:13.737Z,11.50
2023-05-18T13:08:44.155Z,6.97
2023-05-18T13:11:18.320Z,7.00
2023-05-18T13:14:05.676Z,7.22
2023-05-18T13:16:39.236Z,6.93
2023-05-18T13:19:11.653Z,5.93
2023-05-18T13:21:41.940Z,7.20
2023-05-18T13:24:12.492Z,6.00
2023-05-18T13:26:42.705Z,6.50
2023-05-18T13:29:14.327Z,5.50
2023-05-18T13:31:44.472Z,5.45
2023-05-18T13:34:14.841Z,6.28
2023-05-18T13:36:45.074Z,5.28
2023-05-18T13:39:15.207Z,5.25
2023-05-18T13:41:46.352Z,5.00
2023-05-18T13:44:18.210Z,5.32
2023-05-18T13:46:48.491Z,5.45
2023-05-18T13:49:18.597Z,5.22
2023-05-18T13:51:49.383Z,4.82
2023-05-18T13:54:19.804Z,4.22
2023-05-18T13:56:50.319Z,3.70
2023-05-18T13:59:21.038Z,4.45
2023-05-18T14:01:51.656Z,3.95
2023-05-18T14:04:22.188Z,4.43
2023-05-18T14:06:56.540Z,4.43
2023-05-18T14:09:31.217Z,3.97
2023-05-18T14:12:01.837Z,3.70
2023-05-18T14:14:32.323Z,4.07
2023-05-18T14:17:02.927Z,3.38
2023-05-18T14:19:36.057Z,3.88
2023-05-18T14:22:06.829Z,3.35
2023-05-18T14:24:37.124Z,3.92
2023-05-18T14:27:08.397Z,3.45
2023-05-18T14:29:38.707Z,3.58
2023-05-18T14:32:10.851Z,3.38
2023-05-18T14:34:41.109Z,3.35
2023-05-18T14:37:11.648Z,3.50
2023-05-18T14:39:41.982Z,3.25
2023-05-18T14:42:12.442Z,3.15
2023-05-18T14:44:42.693Z,3.22
2023-05-18T14:47:13.155Z,3.33
2023-05-18T14:49:43.425Z,3.03
2023-05-18T14:52:13.754Z,2.95
2023-05-18T14:54:45.244Z,2.20
2023-05-18T14:57:15.522Z,2.50
2023-05-18T14:59:45.874Z,3.08
2023-05-18T15:02:16.157Z,2.60
2023-05-18T15:04:46.348Z,2.67
2023-05-18T15:07:17.310Z,2.75
2023-05-18T15:09:47.743Z,2.50
2023-05-18T15:12:18.949Z,2.70
2023-05-18T15:14:49.043Z,3.38
2023-05-18T15:17:19.535Z,2.67
2023-05-18T15:19:49.669Z,2.90
2023-05-18T15:22:19.955Z,2.40
2023-05-18T15:24:50.139Z,2.83
2023-05-18T15:27:20.365Z,2.30
2023-05-18T15:29:50.744Z,2.28
2023-05-18T15:32:20.891Z,2.35
2023-05-18T15:34:51.307Z,2.78
2023-05-18T15:37:21.815Z,2.60
2023-05-18T15:39:52.191Z,2.25
2023-05-18T15:42:23.510Z,2.25
2023-05-18T15:44:53.945Z,2.53
2023-05-18T15:47:24.173Z,2.67
2023-05-18T15:49:57.044Z,2.50
2023-05-18T15:52:28.147Z,3.03
2023-05-18T15:54:58.473Z,2.95
2023-05-18T15:57:28.635Z,2.22
2023-05-18T15:59:58.976Z,3.15
2023-05-18T16:02:29.295Z,2.88
2023-05-18T16:04:59.404Z,2.35
2023-05-18T16:07:29.770Z,2.90
2023-05-18T16:09:59.899Z,2.50
2023-05-18T16:12:31.884Z,2.33
2023-05-18T16:15:01.995Z,2.83
2023-05-18T16:17:33.841Z,2.58
2023-05-18T16:20:04.189Z,2.67
2023-05-18T16:22:34.657Z,2.72
2023-05-18T16:25:04.774Z,2.67
2023-05-18T16:27:34.723Z,2.58
2023-05-18T16:30:04.862Z,2.35
2023-05-18T16:32:35.092Z,2.70
2023-05-18T16:35:05.968Z,2.78
2023-05-18T16:37:37.772Z,2.90
2023-05-18T16:40:08.529Z,2.80
2023-05-18T16:42:38.804Z,2.53
2023-05-18T16:45:09.156Z,3.33
2023-05-18T16:47:41.048Z,2.72
2023-05-18T16:50:11.746Z,3.40
2023-05-18T16:52:42.992Z,3.08
2023-05-18T16:55:13.130Z,2.53
2023-05-18T16:57:44.615Z,2.83
2023-05-18T17:00:15.271Z,2.85
2023-05-18T17:02:45.860Z,2.88
2023-05-18T17:05:18.325Z,2.97
2023-05-18T17:07:48.860Z,2.83
2023-05-18T17:10:19.143Z,2.72
2023-05-18T17:12:49.622Z,2.63
2023-05-18T17:15:19.760Z,3.33
2023-05-18T17:17:49.997Z,3.15
2023-05-18T17:20:21.367Z,2.80
2023-05-18T17:22:51.481Z,2.65
2023-05-18T17:25:22.198Z,2.53
2023-05-18T17:27:52.518Z,2.70
2023-05-18T17:30:22.813Z,2.50
2023-05-18T17:32:52.921Z,2.75
2023-05-18T17:35:23.093Z,2.40
2023-05-18T17:37:54.883Z,2.33
2023-05-18T17:40:25.242Z,2.40
2023-05-18T17:42:55.646Z,3.05
2023-05-18T17:45:25.759Z,2.83
2023-05-18T17:47:55.910Z,4.55
2023-05-18T17:50:26.236Z,3.13
2023-05-18T17:52:56.377Z,3.70
2023-05-18T17:55:26.485Z,4.00
2023-05-18T17:57:56.863Z,2.70
2023-05-18T18:00:27.900Z,2.80
2023-05-18T18:02:58.378Z,3.60
2023-05-18T18:05:28.624Z,3.13
2023-05-18T18:08:02.868Z,3.28
2023-05-18T18:10:34.167Z,3.35
2023-05-18T18:13:04.406Z,2.95
2023-05-18T18:15:34.627Z,3.30
2023-05-18T18:18:04.789Z,3.35
2023-05-18T18:20:37.720Z,3.50
2023-05-18T18:23:08.660Z,3.72
2023-05-18T18:25:39.304Z,2.88
2023-05-18T18:28:15.733Z,4.25
2023-05-18T18:30:45.940Z,3.15
2023-05-18T18:33:16.334Z,4.07
2023-05-18T18:35:46.600Z,5.55
2023-05-18T18:38:16.889Z,4.15
2023-05-18T18:40:47.025Z,3.42
2023-05-18T18:43:17.559Z,3.00
2023-05-18T18:45:47.776Z,2.95
2023-05-18T18:48:22.228Z,3.20
2023-05-18T18:50:52.610Z,3.92
2023-05-18T18:53:22.899Z,3.35
2023-05-18T18:55:53.037Z,3.40
2023-05-18T18:58:25.435Z,3.15
2023-05-18T19:00:55.674Z,3.20
2023-05-18T19:03:27.320Z,3.33
2023-05-18T19:05:57.444Z,3.10
2023-05-18T19:08:29.059Z,3.38
2023-05-18T19:10:59.387Z,3.72
2023-05-18T19:13:29.750Z,3.22
2023-05-18T19:15:59.909Z,3.35
2023-05-18T19:18:30.070Z,3.40
2023-05-18T19:21:02.459Z,3.28
2023-05-18T19:23:32.609Z,3.30
2023-05-18T19:26:03.368Z,3.33
2023-05-18T19:28:33.583Z,3.53
2023-05-18T19:31:03.835Z,3.72
2023-05-18T19:33:34.029Z,3.40
2023-05-18T19:36:06.204Z,4.40
2023-05-18T19:38:36.469Z,5.00
2023-05-18T19:41:06.654Z,5.18
2023-05-18T19:43:37.177Z,4.72
2023-05-18T19:46:07.804Z,5.22
2023-05-18T19:48:38.071Z,5.38
2023-05-18T19:51:08.405Z,4.40
2023-05-18T19:53:38.745Z,4.60
2023-05-18T19:56:08.849Z,4.50
2023-05-18T19:58:40.024Z,4.53
2023-05-18T20:01:11.205Z,3.75
2023-05-18T20:03:43.237Z,3.55
2023-05-18T20:06:13.837Z,3.80
2023-05-18T20:08:44.794Z,3.15
2023-05-18T20:11:16.201Z,4.75
2023-05-18T20:13:47.285Z,4.60
2023-05-18T20:16:18.327Z,4.97
2023-05-18T20:18:48.672Z,5.20
2023-05-18T20:21:19.737Z,3.40
2023-05-18T20:23:50.548Z,4.57
2023-05-18T20:26:20.927Z,3.65
2023-05-18T20:28:51.528Z,4.00
2023-05-18T20:31:22.738Z,3.70
2023-05-18T20:33:55.158Z,4.40
2023-05-18T20:36:28.702Z,4.50
2023-05-18T20:38:58.940Z,4.65
2023-05-18T20:41:29.510Z,4.03
2023-05-18T20:44:03.110Z,4.60
2023-05-18T20:46:35.002Z,3.70
2023-05-18T20:49:07.976Z,4.03
2023-05-18T20:51:38.566Z,3.80
2023-05-18T20:54:08.978Z,4.25
2023-05-18T20:56:39.225Z,4.20
2023-05-18T20:59:11.202Z,4.85
2023-05-18T21:01:42.258Z,4.32
2023-05-18T21:04:13.298Z,4.63
2023-05-18T21:06:44.986Z,4.88
2023-05-18T21:09:15.144Z,4.60
2023-05-18T21:11:45.457Z,4.70
2023-05-18T21:14:15.594Z,4.45
2023-05-18T21:16:45.818Z,5.38
2023-05-18T21:19:16.149Z,5.30
2023-05-18T21:21:46.372Z,4.80
2023-05-18T21:24:16.497Z,5.60
2023-05-18T21:26:46.602Z,5.15
2023-05-18T21:29:16.732Z,5.90
2023-05-18T21:31:48.001Z,6.63
2023-05-18T21:34:19.178Z,6.57
2023-05-18T21:36:49.535Z,6.47
2023-05-18T21:39:19.679Z,7.18
2023-05-18T21:41:49.844Z,6.85
2023-05-18T21:44:20.025Z,6.70
2023-05-18T21:46:52.615Z,6.18
2023-05-18T21:49:23.084Z,6.10
2023-05-18T21:51:53.319Z,6.05
2023-05-18T21:54:33.547Z,6.38
2023-05-18T21:57:05.403Z,7.32
2023-05-18T21:59:35.885Z,7.03
2023-05-18T22:02:06.270Z,8.00
2023-05-18T22:04:36.642Z,7.60
2023-05-18T22:07:07.298Z,7.20
2023-05-18T22:09:38.577Z,6.88
2023-05-18T22:12:09.914Z,6.68
2023-05-18T22:14:41.350Z,7.93
2023-05-18T22:17:11.635Z,8.07
2023-05-18T22:19:43.415Z,7.63
2023-05-18T22:22:22.973Z,7.28
2023-05-18T22:25:00.191Z,7.07
2023-05-18T22:27:30.489Z,7.10
2023-05-18T22:30:22.201Z,7.60
2023-05-18T22:32:53.131Z,7.57
2023-05-18T22:35:23.590Z,7.10
2023-05-18T22:37:53.838Z,6.32
2023-05-18T22:40:24.962Z,6.43
2023-05-18T22:42:56.265Z,7.13
2023-05-18T22:45:26.629Z,6.68
2023-05-18T22:47:57.478Z,7.32
2023-05-18T22:50:28.741Z,7.28
2023-05-18T22:52:59.900Z,6.82
2023-05-18T22:55:30.677Z,6.93
2023-05-18T22:58:01.195Z,6.68
2023-05-18T23:00:31.718Z,6.85
2023-05-18T23:03:02.206Z,6.15
2023-05-18T23:05:33.999Z,6.25
2023-05-18T23:08:04.535Z,5.40
2023-05-18T23:10:35.290Z,6.50
2023-05-18T23:13:06.238Z,6.90
2023-05-18T23:15:36.683Z,5.80
2023-05-18T23:18:10.331Z,6.53
2023-05-18T23:20:40.802Z,6.15
2023-05-18T23:23:11.113Z,6.10
2023-05-18T23:25:41.659Z,6.75
2023-05-18T23:28:11.924Z,6.35
2023-05-18T23:30:42.489Z,6.57
2023-05-18T23:33:16.102Z,6.35
2023-05-18T23:35:48.170Z,6.40
2023-05-18T23:38:23.196Z,6.88
2023-05-18T23:40:55.409Z,6.20
2023-05-18T23:43:26.029Z,6.47
2023-05-18T23:45:56.860Z,6.70
2023-05-18T23:48:28.841Z,6.63
2023-05-18T23:51:04.628Z,6.80
2023-05-18T23:53:36.181Z,6.75
2023-05-18T23:56:08.124Z,6.43
2023-05-18T23:58:38.926Z,6.68
